sensor_id;sensor_type;location;lat;lon;timestamp;P1;durP1;ratioP1;P2;durP2;ratioP2
39518;SDS011;25200;53.394;10.414;2022-10-16T00:01:06;8.60;;;4.50;;
39518;SDS011;25200;53.394;10.414;2022-10-16T00:03:40;11.73;;;5.00;;
39518;SDS011;25200;53.394;10.414;2022-10-16T00:06:06;7.32;;;4.63;;
39518;SDS011;25200;53.394;10.414;2022-10-16T00:08:33;7.43;;;4.47;;
39518;SDS011;25200;53.394;10.414;2022-10-16T00:11:00;7.07;;;4.20;;
39518;SDS011;25200;53.394;10.414;2022-10-16T00:13:28;7.28;;;3.83;;
39518;SDS011;25200;53.394;10.414;2022-10-16T00:15:55;6.57;;;3.70;;
39518;SDS011;25200;53.394;10.414;2022-10-16T00:18:21;5.93;;;3.65;;
39518;SDS011;25200;53.394;10.414;2022-10-16T00:20:47;6.53;;;4.13;;
39518;SDS011;25200;53.394;10.414;2022-10-16T00:23:13;7.20;;;4.32;;
39518;SDS011;25200;53.394;10.414;2022-10-16T00:25:38;11.05;;;4.40;;
39518;SDS011;25200;53.394;10.414;2022-10-16T00:28:04;8.73;;;5.18;;
39518;SDS011;25200;53.394;10.414;2022-10-16T00:30:29;7.10;;;4.50;;
39518;SDS011;25200;53.394;10.414;2022-10-16T00:32:55;10.38;;;4.95;;
39518;SDS011;25200;53.394;10.414;2022-10-16T00:35:21;9.18;;;4.28;;
39518;SDS011;25200;53.394;10.414;2022-10-16T00:37:47;8.70;;;4.65;;
39518;SDS011;25200;53.394;10.414;2022-10-16T00:40:12;6.90;;;3.90;;
39518;SDS011;25200;53.394;10.414;2022-10-16T00:42:38;6.82;;;4.20;;
39518;SDS011;25200;53.394;10.414;2022-10-16T00:45:04;8.32;;;4.43;;
39518;SDS011;25200;53.394;10.414;2022-10-16T00:47:32;7.85;;;4.32;;
39518;SDS011;25200;53.394;10.414;2022-10-16T00:50:05;7.97;;;4.28;;
39518;SDS011;25200;53.394;10.414;2022-10-16T00:52:39;10.23;;;4.30;;
39518;SDS011;25200;53.394;10.414;2022-10-16T00:55:08;8.52;;;4.00;;
39518;SDS011;25200;53.394;10.414;2022-10-16T00:57:34;7.90;;;4.07;;
39518;SDS011;25200;53.394;10.414;2022-10-16T01:00:00;7.97;;;4.43;;
39518;SDS011;25200;53.394;10.414;2022-10-16T01:02:28;9.90;;;4.47;;
39518;SDS011;25200;53.394;10.414;2022-10-16T01:04:54;7.28;;;4.30;;
39518;SDS011;25200;53.394;10.414;2022-10-16T01:10:30;8.25;;;4.78;;
39518;SDS011;25200;53.394;10.414;2022-10-16T01:21:13;7.25;;;4.00;;
39518;SDS011;25200;53.394;10.414;2022-10-16T01:23:51;10.20;;;3.80;;
39518;SDS011;25200;53.394;10.414;2022-10-16T01:32:38;6.70;;;3.10;;
39518;SDS011;25200;53.394;10.414;2022-10-16T01:34:59;5.78;;;2.70;;
39518;SDS011;25200;53.394;10.414;2022-10-16T01:38:30;6.75;;;2.60;;
39518;SDS011;25200;53.394;10.414;2022-10-16T01:40:30;6.03;;;2.45;;
39518;SDS011;25200;53.394;10.414;2022-10-16T01:43:00;4.47;;;2.55;;
39518;SDS011;25200;53.394;10.414;2022-10-16T01:45:32;6.50;;;2.20;;
39518;SDS011;25200;53.394;10.414;2022-10-16T01:48:00;5.82;;;2.17;;
39518;SDS011;25200;53.394;10.414;2022-10-16T01:50:29;5.55;;;2.20;;
39518;SDS011;25200;53.394;10.414;2022-10-16T01:52:58;3.97;;;1.90;;
39518;SDS011;25200;53.394;10.414;2022-10-16T01:55:28;6.07;;;2.33;;
39518;SDS011;25200;53.394;10.414;2022-10-16T01:57:58;4.28;;;1.95;;
39518;SDS011;25200;53.394;10.414;2022-10-16T02:00:27;6.53;;;1.85;;
39518;SDS011;25200;53.394;10.414;2022-10-16T02:02:53;5.28;;;2.00;;
39518;SDS011;25200;53.394;10.414;2022-10-16T02:07:58;6.47;;;1.80;;
39518;SDS011;25200;53.394;10.414;2022-10-16T02:10:24;6.18;;;1.90;;
39518;SDS011;25200;53.394;10.414;2022-10-16T02:12:54;4.57;;;1.88;;
39518;SDS011;25200;53.394;10.414;2022-10-16T02:15:24;6.68;;;1.73;;
39518;SDS011;25200;53.394;10.414;2022-10-16T02:17:50;3.15;;;1.67;;
39518;SDS011;25200;53.394;10.414;2022-10-16T02:20:16;7.22;;;1.83;;
39518;SDS011;25200;53.394;10.414;2022-10-16T02:22:45;4.13;;;1.80;;
39518;SDS011;25200;53.394;10.414;2022-10-16T02:27:52;3.65;;;1.67;;
39518;SDS011;25200;53.394;10.414;2022-10-16T02:30:36;3.85;;;1.70;;
39518;SDS011;25200;53.394;10.414;2022-10-16T02:33:12;4.50;;;1.55;;
39518;SDS011;25200;53.394;10.414;2022-10-16T02:35:40;3.70;;;1.50;;
39518;SDS011;25200;53.394;10.414;2022-10-16T02:38:08;6.07;;;1.77;;
39518;SDS011;25200;53.394;10.414;2022-10-16T02:40:34;2.75;;;1.50;;
39518;SDS011;25200;53.394;10.414;2022-10-16T02:43:02;5.55;;;1.60;;
39518;SDS011;25200;53.394;10.414;2022-10-16T02:45:29;4.10;;;1.52;;
39518;SDS011;25200;53.394;10.414;2022-10-16T02:47:55;4.15;;;1.48;;
39518;SDS011;25200;53.394;10.414;2022-10-16T02:50:21;4.63;;;1.63;;
39518;SDS011;25200;53.394;10.414;2022-10-16T02:52:47;4.15;;;1.45;;
39518;SDS011;25200;53.394;10.414;2022-10-16T02:55:13;3.80;;;1.65;;
39518;SDS011;25200;53.394;10.414;2022-10-16T02:57:38;3.88;;;1.50;;
39518;SDS011;25200;53.394;10.414;2022-10-16T03:00:05;3.58;;;1.50;;
39518;SDS011;25200;53.394;10.414;2022-10-16T03:02:32;3.33;;;1.55;;
39518;SDS011;25200;53.394;10.414;2022-10-16T03:04:58;5.10;;;1.73;;
39518;SDS011;25200;53.394;10.414;2022-10-16T03:07:24;4.68;;;1.63;;
39518;SDS011;25200;53.394;10.414;2022-10-16T03:09:50;4.32;;;1.70;;
39518;SDS011;25200;53.394;10.414;2022-10-16T03:12:15;3.55;;;1.55;;
39518;SDS011;25200;53.394;10.414;2022-10-16T03:14:41;4.68;;;1.58;;
39518;SDS011;25200;53.394;10.414;2022-10-16T03:17:07;5.70;;;1.65;;
39518;SDS011;25200;53.394;10.414;2022-10-16T03:19:32;4.18;;;1.55;;
39518;SDS011;25200;53.394;10.414;2022-10-16T03:21:58;11.07;;;1.95;;
39518;SDS011;25200;53.394;10.414;2022-10-16T03:24:23;5.20;;;1.60;;
39518;SDS011;25200;53.394;10.414;2022-10-16T03:26:49;3.88;;;1.70;;
39518;SDS011;25200;53.394;10.414;2022-10-16T03:29:15;3.22;;;1.60;;
39518;SDS011;25200;53.394;10.414;2022-10-16T03:31:40;6.05;;;1.58;;
39518;SDS011;25200;53.394;10.414;2022-10-16T03:34:06;4.53;;;1.75;;
39518;SDS011;25200;53.394;10.414;2022-10-16T03:36:32;7.05;;;1.70;;
39518;SDS011;25200;53.394;10.414;2022-10-16T03:38:57;4.78;;;1.77;;
39518;SDS011;25200;53.394;10.414;2022-10-16T03:41:23;3.38;;;1.58;;
39518;SDS011;25200;53.394;10.414;2022-10-16T03:43:48;4.45;;;1.67;;
39518;SDS011;25200;53.394;10.414;2022-10-16T03:46:14;5.95;;;1.75;;
39518;SDS011;25200;53.394;10.414;2022-10-16T03:48:43;3.67;;;1.35;;
39518;SDS011;25200;53.394;10.414;2022-10-16T03:51:08;3.75;;;1.52;;
39518;SDS011;25200;53.394;10.414;2022-10-16T03:53:34;4.03;;;1.30;;
39518;SDS011;25200;53.394;10.414;2022-10-16T03:56:00;4.97;;;1.40;;
39518;SDS011;25200;53.394;10.414;2022-10-16T03:58:25;2.47;;;1.33;;
39518;SDS011;25200;53.394;10.414;2022-10-16T04:00:51;3.35;;;1.33;;
39518;SDS011;25200;53.394;10.414;2022-10-16T04:03:17;3.80;;;1.50;;
39518;SDS011;25200;53.394;10.414;2022-10-16T04:05:44;4.50;;;1.70;;
39518;SDS011;25200;53.394;10.414;2022-10-16T04:08:09;4.57;;;1.85;;
39518;SDS011;25200;53.394;10.414;2022-10-16T04:10:35;7.40;;;1.67;;
39518;SDS011;25200;53.394;10.414;2022-10-16T04:13:01;5.82;;;1.42;;
39518;SDS011;25200;53.394;10.414;2022-10-16T04:15:26;3.13;;;1.52;;
39518;SDS011;25200;53.394;10.414;2022-10-16T04:17:52;5.63;;;1.75;;
39518;SDS011;25200;53.394;10.414;2022-10-16T04:20:17;3.20;;;1.42;;
39518;SDS011;25200;53.394;10.414;2022-10-16T04:22:43;3.53;;;1.70;;
39518;SDS011;25200;53.394;10.414;2022-10-16T04:25:09;4.25;;;1.60;;
39518;SDS011;25200;53.394;10.414;2022-10-16T04:27:36;6.32;;;1.50;;
39518;SDS011;25200;53.394;10.414;2022-10-16T04:30:03;5.32;;;1.55;;
39518;SDS011;25200;53.394;10.414;2022-10-16T04:32:29;5.55;;;1.70;;
39518;SDS011;25200;53.394;10.414;2022-10-16T04:34:55;7.13;;;1.50;;
39518;SDS011;25200;53.394;10.414;2022-10-16T04:37:24;3.47;;;1.40;;
39518;SDS011;25200;53.394;10.414;2022-10-16T04:39:51;4.80;;;1.50;;
39518;SDS011;25200;53.394;10.414;2022-10-16T04:42:17;5.93;;;1.70;;
39518;SDS011;25200;53.394;10.414;2022-10-16T04:44:42;4.47;;;1.55;;
39518;SDS011;25200;53.394;10.414;2022-10-16T04:47:08;6.55;;;1.70;;
39518;SDS011;25200;53.394;10.414;2022-10-16T04:49:34;4.95;;;1.38;;
39518;SDS011;25200;53.394;10.414;2022-10-16T04:51:59;3.17;;;1.40;;
39518;SDS011;25200;53.394;10.414;2022-10-16T04:54:25;3.92;;;1.65;;
39518;SDS011;25200;53.394;10.414;2022-10-16T04:56:51;5.43;;;1.58;;
39518;SDS011;25200;53.394;10.414;2022-10-16T04:59:17;5.53;;;1.60;;
39518;SDS011;25200;53.394;10.414;2022-10-16T05:01:44;5.05;;;1.65;;
39518;SDS011;25200;53.394;10.414;2022-10-16T05:04:10;5.05;;;1.85;;
39518;SDS011;25200;53.394;10.414;2022-10-16T05:06:36;10.20;;;1.80;;
39518;SDS011;25200;53.394;10.414;2022-10-16T05:09:03;6.97;;;1.80;;
39518;SDS011;25200;53.394;10.414;2022-10-16T05:11:30;5.60;;;1.83;;
39518;SDS011;25200;53.394;10.414;2022-10-16T05:13:56;5.05;;;1.90;;
39518;SDS011;25200;53.394;10.414;2022-10-16T05:16:21;3.28;;;1.50;;
39518;SDS011;25200;53.394;10.414;2022-10-16T05:18:47;7.28;;;2.05;;
39518;SDS011;25200;53.394;10.414;2022-10-16T05:21:13;5.20;;;1.55;;
39518;SDS011;25200;53.394;10.414;2022-10-16T05:23:38;7.15;;;2.15;;
39518;SDS011;25200;53.394;10.414;2022-10-16T05:26:04;5.60;;;1.70;;
39518;SDS011;25200;53.394;10.414;2022-10-16T05:28:31;2.92;;;1.55;;
39518;SDS011;25200;53.394;10.414;2022-10-16T05:30:57;4.65;;;1.70;;
39518;SDS011;25200;53.394;10.414;2022-10-16T05:33:26;4.32;;;1.73;;
39518;SDS011;25200;53.394;10.414;2022-10-16T05:35:51;5.45;;;1.95;;
39518;SDS011;25200;53.394;10.414;2022-10-16T05:38:17;4.63;;;2.00;;
39518;SDS011;25200;53.394;10.414;2022-10-16T05:40:43;5.05;;;1.90;;
39518;SDS011;25200;53.394;10.414;2022-10-16T05:43:16;5.35;;;2.15;;
39518;SDS011;25200;53.394;10.414;2022-10-16T05:45:42;5.80;;;1.88;;
39518;SDS011;25200;53.394;10.414;2022-10-16T05:48:07;7.40;;;2.58;;
39518;SDS011;25200;53.394;10.414;2022-10-16T05:50:33;9.13;;;2.20;;
39518;SDS011;25200;53.394;10.414;2022-10-16T05:52:59;4.85;;;2.05;;
39518;SDS011;25200;53.394;10.414;2022-10-16T05:55:24;6.35;;;1.90;;
39518;SDS011;25200;53.394;10.414;2022-10-16T05:57:50;6.05;;;1.92;;
39518;SDS011;25200;53.394;10.414;2022-10-16T06:00:18;6.28;;;1.98;;
39518;SDS011;25200;53.394;10.414;2022-10-16T06:02:44;4.97;;;2.28;;
39518;SDS011;25200;53.394;10.414;2022-10-16T06:05:10;5.35;;;1.95;;
39518;SDS011;25200;53.394;10.414;2022-10-16T06:07:35;5.22;;;1.90;;
39518;SDS011;25200;53.394;10.414;2022-10-16T06:10:01;5.03;;;2.05;;
39518;SDS011;25200;53.394;10.414;2022-10-16T06:12:28;6.28;;;2.20;;
39518;SDS011;25200;53.394;10.414;2022-10-16T06:14:53;10.82;;;2.13;;
39518;SDS011;25200;53.394;10.414;2022-10-16T06:17:19;4.07;;;1.90;;
39518;SDS011;25200;53.394;10.414;2022-10-16T06:19:44;6.75;;;2.28;;
39518;SDS011;25200;53.394;10.414;2022-10-16T06:22:10;6.88;;;1.90;;
39518;SDS011;25200;53.394;10.414;2022-10-16T06:24:36;5.18;;;2.25;;
39518;SDS011;25200;53.394;10.414;2022-10-16T06:27:02;7.18;;;2.10;;
39518;SDS011;25200;53.394;10.414;2022-10-16T06:29:29;5.28;;;1.90;;
39518;SDS011;25200;53.394;10.414;2022-10-16T06:31:54;8.43;;;2.35;;
39518;SDS011;25200;53.394;10.414;2022-10-16T06:34:20;6.20;;;2.10;;
39518;SDS011;25200;53.394;10.414;2022-10-16T06:36:46;9.57;;;2.28;;
39518;SDS011;25200;53.394;10.414;2022-10-16T06:39:11;6.30;;;2.15;;
39518;SDS011;25200;53.394;10.414;2022-10-16T06:41:37;4.97;;;2.00;;
39518;SDS011;25200;53.394;10.414;2022-10-16T06:44:06;5.28;;;2.13;;
39518;SDS011;25200;53.394;10.414;2022-10-16T06:46:32;7.28;;;2.33;;
39518;SDS011;25200;53.394;10.414;2022-10-16T06:48:59;6.97;;;2.47;;
39518;SDS011;25200;53.394;10.414;2022-10-16T06:51:24;7.10;;;2.17;;
39518;SDS011;25200;53.394;10.414;2022-10-16T06:53:51;8.65;;;2.55;;
39518;SDS011;25200;53.394;10.414;2022-10-16T06:56:19;5.60;;;2.30;;
39518;SDS011;25200;53.394;10.414;2022-10-16T06:58:47;6.85;;;2.88;;
39518;SDS011;25200;53.394;10.414;2022-10-16T07:01:14;7.25;;;2.33;;
39518;SDS011;25200;53.394;10.414;2022-10-16T07:03:41;5.85;;;2.45;;
39518;SDS011;25200;53.394;10.414;2022-10-16T07:06:09;5.75;;;2.42;;
39518;SDS011;25200;53.394;10.414;2022-10-16T07:08:37;5.80;;;2.13;;
39518;SDS011;25200;53.394;10.414;2022-10-16T07:11:05;8.63;;;2.67;;
39518;SDS011;25200;53.394;10.414;2022-10-16T07:13:36;8.80;;;2.60;;
39518;SDS011;25200;53.394;10.414;2022-10-16T07:16:05;5.70;;;2.30;;
39518;SDS011;25200;53.394;10.414;2022-10-16T07:18:35;8.80;;;2.67;;
39518;SDS011;25200;53.394;10.414;2022-10-16T07:23:38;6.90;;;2.55;;
39518;SDS011;25200;53.394;10.414;2022-10-16T07:26:04;7.18;;;2.70;;
39518;SDS011;25200;53.394;10.414;2022-10-16T07:28:31;4.97;;;2.45;;
39518;SDS011;25200;53.394;10.414;2022-10-16T07:31:19;7.88;;;2.47;;
39518;SDS011;25200;53.394;10.414;2022-10-16T07:33:44;4.15;;;2.13;;
39518;SDS011;25200;53.394;10.414;2022-10-16T07:36:11;8.52;;;2.47;;
39518;SDS011;25200;53.394;10.414;2022-10-16T07:38:37;5.88;;;2.30;;
39518;SDS011;25200;53.394;10.414;2022-10-16T07:41:07;7.35;;;2.35;;
39518;SDS011;25200;53.394;10.414;2022-10-16T07:43:35;7.93;;;2.70;;
39518;SDS011;25200;53.394;10.414;2022-10-16T07:46:00;7.20;;;2.20;;
39518;SDS011;25200;53.394;10.414;2022-10-16T07:48:27;6.75;;;2.22;;
39518;SDS011;25200;53.394;10.414;2022-10-16T07:50:57;8.40;;;2.50;;
39518;SDS011;25200;53.394;10.414;2022-10-16T07:53:24;5.20;;;2.40;;
39518;SDS011;25200;53.394;10.414;2022-10-16T07:55:50;5.40;;;1.92;;
39518;SDS011;25200;53.394;10.414;2022-10-16T07:58:15;6.25;;;2.20;;
39518;SDS011;25200;53.394;10.414;2022-10-16T08:00:41;4.55;;;2.10;;
39518;SDS011;25200;53.394;10.414;2022-10-16T08:03:07;6.50;;;2.40;;
39518;SDS011;25200;53.394;10.414;2022-10-16T08:05:33;6.93;;;2.33;;
39518;SDS011;25200;53.394;10.414;2022-10-16T08:07:59;6.18;;;2.50;;
39518;SDS011;25200;53.394;10.414;2022-10-16T08:10:27;5.50;;;2.38;;
39518;SDS011;25200;53.394;10.414;2022-10-16T08:12:54;4.93;;;2.20;;
39518;SDS011;25200;53.394;10.414;2022-10-16T08:15:20;5.40;;;2.30;;
39518;SDS011;25200;53.394;10.414;2022-10-16T08:17:57;7.45;;;2.40;;
39518;SDS011;25200;53.394;10.414;2022-10-16T08:20:27;6.00;;;2.20;;
39518;SDS011;25200;53.394;10.414;2022-10-16T08:22:55;9.02;;;2.50;;
39518;SDS011;25200;53.394;10.414;2022-10-16T08:25:21;6.18;;;2.40;;
39518;SDS011;25200;53.394;10.414;2022-10-16T08:27:48;5.47;;;2.40;;
39518;SDS011;25200;53.394;10.414;2022-10-16T08:30:14;7.72;;;2.47;;
39518;SDS011;25200;53.394;10.414;2022-10-16T08:32:40;5.60;;;2.15;;
39518;SDS011;25200;53.394;10.414;2022-10-16T08:35:07;6.30;;;2.08;;
39518;SDS011;25200;53.394;10.414;2022-10-16T08:37:34;8.48;;;2.22;;
39518;SDS011;25200;53.394;10.414;2022-10-16T08:40:00;4.82;;;2.10;;
39518;SDS011;25200;53.394;10.414;2022-10-16T08:50:26;5.18;;;2.15;;
39518;SDS011;25200;53.394;10.414;2022-10-16T08:52:55;4.57;;;2.17;;
39518;SDS011;25200;53.394;10.414;2022-10-16T08:55:30;7.55;;;2.20;;
39518;SDS011;25200;53.394;10.414;2022-10-16T08:58:15;6.38;;;2.20;;
39518;SDS011;25200;53.394;10.414;2022-10-16T09:00:43;5.68;;;2.15;;
39518;SDS011;25200;53.394;10.414;2022-10-16T09:08:40;5.25;;;1.80;;
39518;SDS011;25200;53.394;10.414;2022-10-16T09:17:15;3.58;;;1.70;;
39518;SDS011;25200;53.394;10.414;2022-10-16T09:22:35;5.82;;;2.03;;
39518;SDS011;25200;53.394;10.414;2022-10-16T09:25:01;4.75;;;1.60;;
39518;SDS011;25200;53.394;10.414;2022-10-16T09:27:47;6.78;;;1.88;;
39518;SDS011;25200;53.394;10.414;2022-10-16T09:30:17;3.10;;;1.65;;
39518;SDS011;25200;53.394;10.414;2022-10-16T09:32:45;4.93;;;1.88;;
39518;SDS011;25200;53.394;10.414;2022-10-16T09:35:18;3.53;;;1.70;;
39518;SDS011;25200;53.394;10.414;2022-10-16T09:37:47;3.97;;;1.73;;
39518;SDS011;25200;53.394;10.414;2022-10-16T09:40:31;4.25;;;1.50;;
39518;SDS011;25200;53.394;10.414;2022-10-16T09:45:42;5.93;;;2.20;;
39518;SDS011;25200;53.394;10.414;2022-10-16T09:48:10;4.20;;;1.38;;
39518;SDS011;25200;53.394;10.414;2022-10-16T09:50:37;5.40;;;1.85;;
39518;SDS011;25200;53.394;10.414;2022-10-16T09:53:07;5.20;;;1.30;;
39518;SDS011;25200;53.394;10.414;2022-10-16T09:55:47;6.20;;;1.30;;
39518;SDS011;25200;53.394;10.414;2022-10-16T09:58:14;3.85;;;1.30;;
39518;SDS011;25200;53.394;10.414;2022-10-16T10:00:41;5.75;;;1.50;;
39518;SDS011;25200;53.394;10.414;2022-10-16T10:03:15;6.82;;;1.20;;
39518;SDS011;25200;53.394;10.414;2022-10-16T10:06:01;4.55;;;1.15;;
39518;SDS011;25200;53.394;10.414;2022-10-16T10:08:52;4.07;;;1.30;;
39518;SDS011;25200;53.394;10.414;2022-10-16T10:11:45;6.03;;;1.27;;
39518;SDS011;25200;53.394;10.414;2022-10-16T10:16:44;2.17;;;0.93;;
39518;SDS011;25200;53.394;10.414;2022-10-16T10:19:20;3.78;;;1.10;;
39518;SDS011;25200;53.394;10.414;2022-10-16T10:21:47;3.25;;;1.25;;
39518;SDS011;25200;53.394;10.414;2022-10-16T10:24:15;2.25;;;0.93;;
39518;SDS011;25200;53.394;10.414;2022-10-16T10:30:34;4.15;;;1.10;;
39518;SDS011;25200;53.394;10.414;2022-10-16T10:35:15;4.38;;;1.10;;
39518;SDS011;25200;53.394;10.414;2022-10-16T10:40:28;2.80;;;0.93;;
39518;SDS011;25200;53.394;10.414;2022-10-16T10:45:46;6.05;;;1.30;;
39518;SDS011;25200;53.394;10.414;2022-10-16T10:48:21;4.25;;;0.93;;
39518;SDS011;25200;53.394;10.414;2022-10-16T10:50:58;1.75;;;0.77;;
39518;SDS011;25200;53.394;10.414;2022-10-16T10:53:36;2.25;;;0.60;;
39518;SDS011;25200;53.394;10.414;2022-10-16T11:01:47;1.95;;;0.80;;
39518;SDS011;25200;53.394;10.414;2022-10-16T11:07:17;4.15;;;1.20;;
39518;SDS011;25200;53.394;10.414;2022-10-16T11:09:50;2.08;;;0.70;;
39518;SDS011;25200;53.394;10.414;2022-10-16T11:12:20;4.97;;;1.10;;
39518;SDS011;25200;53.394;10.414;2022-10-16T11:20:39;3.13;;;0.85;;
39518;SDS011;25200;53.394;10.414;2022-10-16T11:23:21;4.72;;;0.80;;
39518;SDS011;25200;53.394;10.414;2022-10-16T11:25:55;3.60;;;0.80;;
39518;SDS011;25200;53.394;10.414;2022-10-16T11:28:27;3.55;;;0.90;;
39518;SDS011;25200;53.394;10.414;2022-10-16T11:31:05;5.27;;;0.90;;
39518;SDS011;25200;53.394;10.414;2022-10-16T11:36:17;2.50;;;0.85;;
39518;SDS011;25200;53.394;10.414;2022-10-16T11:44:14;5.25;;;0.80;;
39518;SDS011;25200;53.394;10.414;2022-10-16T11:49:38;4.32;;;1.10;;
39518;SDS011;25200;53.394;10.414;2022-10-16T11:57:33;5.72;;;0.88;;
39518;SDS011;25200;53.394;10.414;2022-10-16T12:00:27;4.57;;;0.75;;
39518;SDS011;25200;53.394;10.414;2022-10-16T12:08:26;3.45;;;1.08;;
39518;SDS011;25200;53.394;10.414;2022-10-16T12:10:53;4.32;;;1.00;;
39518;SDS011;25200;53.394;10.414;2022-10-16T12:13:33;3.08;;;0.82;;
39518;SDS011;25200;53.394;10.414;2022-10-16T12:16:19;3.95;;;1.05;;
39518;SDS011;25200;53.394;10.414;2022-10-16T12:18:47;4.30;;;0.73;;
39518;SDS011;25200;53.394;10.414;2022-10-16T12:21:14;2.70;;;0.82;;
39518;SDS011;25200;53.394;10.414;2022-10-16T12:23:51;3.50;;;0.80;;
39518;SDS011;25200;53.394;10.414;2022-10-16T12:26:33;5.18;;;1.00;;
39518;SDS011;25200;53.394;10.414;2022-10-16T12:29:14;6.35;;;1.05;;
39518;SDS011;25200;53.394;10.414;2022-10-16T12:34:32;3.03;;;1.02;;
39518;SDS011;25200;53.394;10.414;2022-10-16T12:37:26;6.10;;;0.95;;
39518;SDS011;25200;53.394;10.414;2022-10-16T12:39:59;2.03;;;0.47;;
39518;SDS011;25200;53.394;10.414;2022-10-16T12:42:36;4.57;;;1.73;;
39518;SDS011;25200;53.394;10.414;2022-10-16T12:45:12;8.90;;;3.35;;
39518;SDS011;25200;53.394;10.414;2022-10-16T12:48:02;5.20;;;1.30;;
39518;SDS011;25200;53.394;10.414;2022-10-16T12:50:37;6.57;;;1.20;;
39518;SDS011;25200;53.394;10.414;2022-10-16T12:53:22;3.85;;;1.10;;
39518;SDS011;25200;53.394;10.414;2022-10-16T13:04:08;2.35;;;0.88;;
39518;SDS011;25200;53.394;10.414;2022-10-16T13:06:58;2.15;;;0.70;;
39518;SDS011;25200;53.394;10.414;2022-10-16T13:12:23;5.53;;;1.30;;
39518;SDS011;25200;53.394;10.414;2022-10-16T13:15:09;4.90;;;1.00;;
39518;SDS011;25200;53.394;10.414;2022-10-16T13:29:08;4.03;;;1.00;;
39518;SDS011;25200;53.394;10.414;2022-10-16T13:31:36;4.80;;;1.00;;
39518;SDS011;25200;53.394;10.414;2022-10-16T13:34:04;6.15;;;1.05;;
39518;SDS011;25200;53.394;10.414;2022-10-16T13:36:43;3.00;;;0.82;;
39518;SDS011;25200;53.394;10.414;2022-10-16T13:42:03;2.72;;;1.00;;
39518;SDS011;25200;53.394;10.414;2022-10-16T13:44:34;3.80;;;1.10;;
39518;SDS011;25200;53.394;10.414;2022-10-16T13:47:22;2.60;;;0.90;;
39518;SDS011;25200;53.394;10.414;2022-10-16T13:50:03;3.33;;;1.00;;
39518;SDS011;25200;53.394;10.414;2022-10-16T13:52:31;4.72;;;1.25;;
39518;SDS011;25200;53.394;10.414;2022-10-16T13:54:56;9.18;;;1.30;;
39518;SDS011;25200;53.394;10.414;2022-10-16T13:57:23;3.33;;;1.00;;
39518;SDS011;25200;53.394;10.414;2022-10-16T13:59:49;4.72;;;1.00;;
39518;SDS011;25200;53.394;10.414;2022-10-16T14:02:25;4.70;;;0.82;;
39518;SDS011;25200;53.394;10.414;2022-10-16T14:04:54;3.55;;;1.10;;
39518;SDS011;25200;53.394;10.414;2022-10-16T14:07:25;5.25;;;1.00;;
39518;SDS011;25200;53.394;10.414;2022-10-16T14:09:53;4.25;;;0.93;;
39518;SDS011;25200;53.394;10.414;2022-10-16T14:12:19;3.00;;;1.00;;
39518;SDS011;25200;53.394;10.414;2022-10-16T14:14:47;5.15;;;1.10;;
39518;SDS011;25200;53.394;10.414;2022-10-16T14:17:34;6.65;;;0.90;;
39518;SDS011;25200;53.394;10.414;2022-10-16T14:20:03;4.68;;;1.30;;
39518;SDS011;25200;53.394;10.414;2022-10-16T14:22:35;5.32;;;0.80;;
39518;SDS011;25200;53.394;10.414;2022-10-16T14:30:57;4.15;;;1.08;;
39518;SDS011;25200;53.394;10.414;2022-10-16T14:36:12;3.97;;;1.20;;
39518;SDS011;25200;53.394;10.414;2022-10-16T14:38:41;3.22;;;1.15;;
39518;SDS011;25200;53.394;10.414;2022-10-16T14:41:13;4.25;;;0.80;;
39518;SDS011;25200;53.394;10.414;2022-10-16T14:43:40;3.33;;;0.70;;
39518;SDS011;25200;53.394;10.414;2022-10-16T14:46:17;4.13;;;1.10;;
39518;SDS011;25200;53.394;10.414;2022-10-16T14:48:46;5.07;;;0.88;;
39518;SDS011;25200;53.394;10.414;2022-10-16T14:51:15;5.60;;;1.00;;
39518;SDS011;25200;53.394;10.414;2022-10-16T14:53:42;3.38;;;1.10;;
39518;SDS011;25200;53.394;10.414;2022-10-16T14:56:18;3.85;;;1.02;;
39518;SDS011;25200;53.394;10.414;2022-10-16T14:58:49;3.90;;;1.00;;
39518;SDS011;25200;53.394;10.414;2022-10-16T15:01:16;4.57;;;0.75;;
39518;SDS011;25200;53.394;10.414;2022-10-16T15:03:42;5.97;;;1.23;;
39518;SDS011;25200;53.394;10.414;2022-10-16T15:06:09;2.72;;;0.60;;
39518;SDS011;25200;53.394;10.414;2022-10-16T15:08:36;5.20;;;1.08;;
39518;SDS011;25200;53.394;10.414;2022-10-16T15:11:03;3.10;;;0.73;;
39518;SDS011;25200;53.394;10.414;2022-10-16T15:13:29;2.33;;;0.85;;
39518;SDS011;25200;53.394;10.414;2022-10-16T15:15:54;4.40;;;1.10;;
39518;SDS011;25200;53.394;10.414;2022-10-16T15:18:20;5.13;;;0.98;;
39518;SDS011;25200;53.394;10.414;2022-10-16T15:20:49;5.20;;;0.90;;
39518;SDS011;25200;53.394;10.414;2022-10-16T15:23:20;3.10;;;0.90;;
39518;SDS011;25200;53.394;10.414;2022-10-16T15:25:47;3.95;;;1.00;;
39518;SDS011;25200;53.394;10.414;2022-10-16T15:28:16;4.93;;;1.15;;
39518;SDS011;25200;53.394;10.414;2022-10-16T15:30:42;6.68;;;1.38;;
39518;SDS011;25200;53.394;10.414;2022-10-16T15:33:11;1.17;;;0.63;;
39518;SDS011;25200;53.394;10.414;2022-10-16T15:35:39;6.50;;;1.02;;
39518;SDS011;25200;53.394;10.414;2022-10-16T15:38:04;5.30;;;1.13;;
39518;SDS011;25200;53.394;10.414;2022-10-16T15:40:30;4.55;;;1.20;;
39518;SDS011;25200;53.394;10.414;2022-10-16T15:42:56;4.20;;;1.20;;
39518;SDS011;25200;53.394;10.414;2022-10-16T15:45:21;3.97;;;1.27;;
39518;SDS011;25200;53.394;10.414;2022-10-16T15:47:47;6.35;;;1.90;;
39518;SDS011;25200;53.394;10.414;2022-10-16T15:50:14;6.18;;;2.40;;
39518;SDS011;25200;53.394;10.414;2022-10-16T15:52:41;7.80;;;2.50;;
39518;SDS011;25200;53.394;10.414;2022-10-16T15:55:10;6.03;;;2.60;;
39518;SDS011;25200;53.394;10.414;2022-10-16T15:57:38;6.50;;;1.98;;
39518;SDS011;25200;53.394;10.414;2022-10-16T16:00:06;6.60;;;1.67;;
39518;SDS011;25200;53.394;10.414;2022-10-16T16:02:36;3.60;;;1.17;;
39518;SDS011;25200;53.394;10.414;2022-10-16T16:05:02;3.15;;;1.20;;
39518;SDS011;25200;53.394;10.414;2022-10-16T16:07:29;4.25;;;1.00;;
39518;SDS011;25200;53.394;10.414;2022-10-16T16:09:57;3.15;;;1.08;;
39518;SDS011;25200;53.394;10.414;2022-10-16T16:12:23;7.20;;;1.80;;
39518;SDS011;25200;53.394;10.414;2022-10-16T16:14:48;9.00;;;1.50;;
39518;SDS011;25200;53.394;10.414;2022-10-16T16:17:14;6.10;;;1.70;;
39518;SDS011;25200;53.394;10.414;2022-10-16T16:19:40;6.82;;;1.50;;
39518;SDS011;25200;53.394;10.414;2022-10-16T16:22:05;4.55;;;1.20;;
39518;SDS011;25200;53.394;10.414;2022-10-16T16:24:31;5.97;;;1.38;;
39518;SDS011;25200;53.394;10.414;2022-10-16T16:26:57;8.23;;;0.90;;
39518;SDS011;25200;53.394;10.414;2022-10-16T16:29:22;5.57;;;1.10;;
39518;SDS011;25200;53.394;10.414;2022-10-16T16:31:48;6.28;;;1.42;;
39518;SDS011;25200;53.394;10.414;2022-10-16T16:34:14;4.30;;;1.52;;
39518;SDS011;25200;53.394;10.414;2022-10-16T16:36:40;6.10;;;1.90;;
39518;SDS011;25200;53.394;10.414;2022-10-16T16:39:06;4.90;;;2.05;;
39518;SDS011;25200;53.394;10.414;2022-10-16T16:41:32;5.18;;;1.80;;
39518;SDS011;25200;53.394;10.414;2022-10-16T16:44:02;5.85;;;1.55;;
39518;SDS011;25200;53.394;10.414;2022-10-16T16:46:29;8.02;;;1.65;;
39518;SDS011;25200;53.394;10.414;2022-10-16T16:48:57;6.07;;;1.60;;
39518;SDS011;25200;53.394;10.414;2022-10-16T16:51:23;5.00;;;1.60;;
39518;SDS011;25200;53.394;10.414;2022-10-16T16:53:50;5.35;;;1.40;;
39518;SDS011;25200;53.394;10.414;2022-10-16T16:56:18;9.05;;;1.50;;
39518;SDS011;25200;53.394;10.414;2022-10-16T16:58:45;5.53;;;1.90;;
39518;SDS011;25200;53.394;10.414;2022-10-16T17:01:15;14.95;;;8.63;;